createdAt,value
2018-05-29T00:02:08.723Z,8.17
2018-05-29T00:04:37.079Z,8.13
2018-05-29T00:07:05.432Z,8.47
2018-05-29T00:09:33.773Z,8.53
2018-05-29T00:12:02.276Z,8.33
2018-05-29T00:14:32.149Z,8.13
2018-05-29T00:17:00.529Z,8.47
2018-05-29T00:19:28.865Z,9.17
2018-05-29T00:21:57.913Z,9.83
2018-05-29T00:24:27.107Z,8.13
2018-05-29T00:26:55.626Z,8.20
2018-05-29T00:29:23.958Z,7.93
2018-05-29T00:31:52.322Z,8.23
2018-05-29T00:34:20.728Z,8.90
2018-05-29T00:36:49.097Z,10.10
2018-05-29T00:39:19.338Z,8.43
2018-05-29T00:41:47.751Z,8.47
2018-05-29T00:44:16.096Z,8.97
2018-05-29T00:46:44.446Z,9.00
2018-05-29T00:49:12.937Z,9.03
2018-05-29T00:51:42.369Z,8.50
2018-05-29T00:54:10.700Z,9.13
2018-05-29T00:56:39.297Z,10.10
2018-05-29T00:59:07.677Z,9.17
2018-05-29T01:01:36.538Z,9.33
2018-05-29T01:04:05.154Z,9.63
2018-05-29T01:06:33.719Z,9.57
2018-05-29T01:09:02.124Z,10.20
2018-05-29T01:11:30.491Z,11.07
2018-05-29T01:13:59.193Z,10.17
2018-05-29T01:16:28.345Z,10.00
2018-05-29T01:18:57.489Z,9.80
2018-05-29T01:21:25.883Z,10.43
2018-05-29T01:23:54.237Z,10.60
2018-05-29T01:26:22.648Z,11.33
2018-05-29T01:28:51.541Z,11.57
2018-05-29T01:31:19.915Z,14.30
2018-05-29T01:33:48.255Z,13.17
2018-05-29T01:36:17.383Z,11.47
2018-05-29T01:38:45.731Z,10.97
2018-05-29T01:41:14.078Z,13.00
2018-05-29T01:43:42.463Z,11.23
2018-05-29T01:46:10.841Z,11.73
2018-05-29T01:48:39.213Z,11.40
2018-05-29T01:51:07.997Z,14.20
2018-05-29T01:53:36.999Z,11.57
2018-05-29T01:56:05.428Z,10.80
2018-05-29T01:58:34.476Z,12.10
2018-05-29T02:01:03.879Z,11.10
2018-05-29T02:03:32.276Z,11.33
2018-05-29T02:06:00.632Z,9.83
2018-05-29T02:08:29.005Z,11.67
2018-05-29T02:10:57.615Z,9.87
2018-05-29T02:13:25.981Z,10.63
2018-05-29T02:15:55.166Z,10.40
2018-05-29T02:18:23.608Z,12.07
2018-05-29T02:20:51.913Z,11.30
2018-05-29T02:23:21.036Z,9.80
2018-05-29T02:25:49.374Z,9.30
2018-05-29T02:28:18.143Z,10.00
2018-05-29T02:30:46.523Z,10.80
2018-05-29T02:33:15.173Z,9.80
2018-05-29T02:35:43.627Z,11.90
2018-05-29T02:38:11.989Z,10.63
2018-05-29T02:40:40.728Z,10.33
2018-05-29T02:43:09.198Z,10.57
2018-05-29T02:45:37.679Z,11.07
2018-05-29T02:48:06.057Z,12.03
2018-05-29T02:50:34.750Z,10.63
2018-05-29T02:53:04.222Z,10.33
2018-05-29T02:55:32.571Z,13.03
2018-05-29T02:58:01.525Z,10.73
2018-05-29T03:00:30.119Z,10.73
2018-05-29T03:02:58.488Z,10.73
2018-05-29T03:05:26.956Z,12.87
2018-05-29T03:07:55.362Z,12.00
2018-05-29T03:10:24.030Z,12.13
2018-05-29T03:12:52.418Z,10.80
2018-05-29T03:15:20.789Z,10.37
2018-05-29T03:17:49.976Z,10.90
2018-05-29T03:20:18.346Z,10.73
2018-05-29T03:22:46.715Z,10.57
2018-05-29T03:25:15.067Z,11.13
2018-05-29T03:27:44.052Z,10.63
2018-05-29T03:30:12.959Z,11.53
2018-05-29T03:32:41.344Z,10.90
2018-05-29T03:35:09.723Z,10.70
2018-05-29T03:37:38.654Z,10.60
2018-05-29T03:40:07.024Z,13.27
2018-05-29T03:42:36.102Z,10.90
2018-05-29T03:45:04.441Z,10.93
2018-05-29T03:47:33.199Z,11.17
2018-05-29T03:50:01.557Z,11.53
2018-05-29T03:52:29.963Z,11.00
2018-05-29T03:54:58.307Z,10.73
2018-05-29T03:57:26.909Z,11.93
2018-05-29T03:59:55.262Z,10.90
2018-05-29T04:02:23.623Z,11.70
2018-05-29T04:04:52.894Z,12.33
2018-05-29T04:07:22.141Z,12.00
2018-05-29T04:09:51.342Z,11.40
2018-05-29T04:12:19.755Z,12.60
2018-05-29T04:14:49.008Z,11.83
2018-05-29T04:17:18.093Z,11.70
2018-05-29T04:19:46.829Z,13.27
2018-05-29T04:22:15.198Z,11.97
2018-05-29T04:24:43.769Z,13.87
2018-05-29T04:27:12.168Z,12.00
2018-05-29T04:29:41.445Z,12.20
2018-05-29T04:32:10.328Z,12.00
2018-05-29T04:34:40.595Z,12.90
2018-05-29T04:37:09.753Z,12.23
2018-05-29T04:39:38.111Z,12.57
2018-05-29T04:42:07.040Z,12.23
2018-05-29T04:44:35.441Z,23.40
2018-05-29T04:47:03.924Z,12.47
2018-05-29T04:49:32.272Z,13.00
2018-05-29T04:52:00.654Z,15.03
2018-05-29T04:54:29.844Z,13.00
2018-05-29T04:56:58.210Z,12.97
2018-05-29T04:59:28.004Z,13.43
2018-05-29T05:01:56.730Z,13.07
2018-05-29T05:04:25.110Z,13.43
2018-05-29T05:06:53.528Z,13.93
2018-05-29T05:09:21.883Z,14.43
2018-05-29T05:11:50.322Z,14.17
2018-05-29T05:14:18.699Z,13.93
2018-05-29T05:16:47.077Z,13.23
2018-05-29T05:19:15.661Z,14.03
2018-05-29T05:21:44.049Z,13.10
2018-05-29T05:24:13.303Z,13.67
2018-05-29T05:26:41.977Z,12.63
2018-05-29T05:29:10.329Z,12.80
2018-05-29T05:31:38.679Z,13.13
2018-05-29T05:34:07.059Z,13.53
2018-05-29T05:36:35.404Z,13.07
2018-05-29T05:39:03.777Z,13.93
2018-05-29T05:41:32.137Z,13.23
2018-05-29T05:44:00.545Z,14.90
2018-05-29T05:46:28.901Z,13.53
2018-05-29T05:48:57.294Z,13.00
2018-05-29T05:51:25.923Z,14.80
2018-05-29T05:53:54.305Z,12.80
2018-05-29T05:56:22.643Z,13.93
2018-05-29T05:58:51.025Z,13.10
2018-05-29T06:01:19.400Z,13.53
2018-05-29T06:03:47.844Z,12.30
2018-05-29T06:06:16.638Z,12.60
2018-05-29T06:08:45.006Z,12.60
2018-05-29T06:11:14.481Z,13.73
2018-05-29T06:13:43.528Z,12.70
2018-05-29T06:16:12.204Z,13.40
2018-05-29T06:18:40.805Z,13.37
2018-05-29T06:21:09.141Z,13.57
2018-05-29T06:23:38.633Z,14.40
2018-05-29T06:26:07.814Z,14.10
2018-05-29T06:28:36.172Z,13.20
2018-05-29T06:31:04.513Z,17.50
2018-05-29T06:33:33.103Z,13.90
2018-05-29T06:36:01.481Z,15.00
2018-05-29T06:38:29.832Z,14.37
2018-05-29T06:40:58.932Z,13.17
2018-05-29T06:43:27.296Z,14.20
2018-05-29T06:45:55.639Z,13.80
2018-05-29T06:48:24.008Z,14.27
2018-05-29T06:50:52.391Z,13.30
2018-05-29T06:53:20.909Z,13.70
2018-05-29T06:55:49.923Z,13.80
2018-05-29T06:58:18.355Z,13.50
2018-05-29T07:00:46.693Z,14.77
2018-05-29T07:03:15.483Z,16.23
2018-05-29T07:05:43.831Z,14.63
2018-05-29T07:08:12.209Z,13.57
2018-05-29T07:10:40.555Z,14.37
2018-05-29T07:13:08.971Z,13.43
2018-05-29T07:15:37.399Z,13.90
2018-05-29T07:18:06.556Z,14.27
2018-05-29T07:20:36.077Z,13.27
2018-05-29T07:23:04.444Z,13.57
2018-05-29T07:25:32.808Z,14.33
2018-05-29T07:28:01.422Z,14.93
2018-05-29T07:30:30.082Z,15.17
2018-05-29T07:32:59.805Z,17.23
2018-05-29T07:35:28.401Z,15.10
2018-05-29T07:37:56.779Z,15.27
2018-05-29T07:40:25.611Z,15.33
2018-05-29T07:42:54.123Z,17.87
2018-05-29T07:45:22.468Z,15.80
2018-05-29T07:47:51.202Z,15.60
2018-05-29T07:50:20.388Z,16.13
2018-05-29T07:52:48.752Z,15.90
2018-05-29T07:55:17.093Z,15.60
2018-05-29T07:57:45.474Z,17.43
2018-05-29T08:00:13.863Z,16.47
2018-05-29T08:02:42.242Z,15.87
2018-05-29T08:05:10.586Z,15.83
2018-05-29T08:07:39.717Z,16.87
2018-05-29T08:10:08.112Z,17.70
2018-05-29T08:12:37.284Z,19.00
2018-05-29T08:15:05.751Z,17.00
2018-05-29T08:17:35.092Z,17.93
2018-05-29T08:20:03.828Z,27.17
2018-05-29T08:22:32.615Z,19.40
2018-05-29T08:25:01.730Z,19.80
2018-05-29T08:27:30.072Z,19.10
2018-05-29T08:29:58.437Z,17.67
2018-05-29T08:32:26.791Z,17.43
2018-05-29T08:34:56.103Z,16.93
2018-05-29T08:37:24.833Z,17.87
2018-05-29T08:39:53.212Z,17.00
2018-05-29T08:42:21.569Z,17.73
2018-05-29T08:44:49.973Z,17.60
2018-05-29T08:47:18.318Z,18.13
2018-05-29T08:49:46.738Z,17.57
2018-05-29T08:52:15.173Z,17.67
2018-05-29T08:54:43.543Z,16.53
2018-05-29T08:57:11.894Z,17.47
2018-05-29T08:59:40.285Z,18.40
2018-05-29T09:02:09.405Z,18.73
2018-05-29T09:04:37.775Z,17.23
2018-05-29T09:07:06.118Z,17.97
2018-05-29T09:09:34.493Z,20.80
2018-05-29T09:12:03.254Z,17.67
2018-05-29T09:14:32.625Z,16.60
2018-05-29T09:17:00.980Z,18.03
2018-05-29T09:19:29.354Z,17.23
2018-05-29T09:21:57.688Z,16.47
2018-05-29T09:24:26.058Z,16.23
2018-05-29T09:26:55.376Z,17.33
2018-05-29T09:29:24.367Z,16.87
2018-05-29T09:31:53.500Z,16.83
2018-05-29T09:34:21.861Z,17.30
2018-05-29T09:36:50.526Z,16.37
2018-05-29T09:39:19.952Z,15.07
2018-05-29T09:41:48.310Z,16.37
2018-05-29T09:44:16.988Z,16.03
2018-05-29T09:46:46.283Z,16.47
2018-05-29T09:49:14.646Z,17.03
2018-05-29T09:51:42.993Z,16.77
2018-05-29T09:54:11.361Z,16.50
2018-05-29T09:56:39.724Z,16.03
2018-05-29T09:59:08.947Z,17.13
2018-05-29T10:01:37.331Z,16.87
2018-05-29T10:04:06.386Z,16.83
2018-05-29T10:06:34.736Z,16.17
2018-05-29T10:09:03.144Z,15.43
2018-05-29T10:11:31.495Z,14.40
2018-05-29T10:14:00.332Z,14.33
2018-05-29T10:16:30.418Z,14.40
2018-05-29T10:18:59.209Z,14.37
2018-05-29T10:21:27.654Z,15.03
2018-05-29T10:23:56.057Z,14.83
2018-05-29T10:26:24.401Z,14.73
2018-05-29T10:28:53.424Z,13.73
2018-05-29T10:31:21.821Z,12.57
2018-05-29T10:33:50.206Z,12.20
2018-05-29T10:36:18.551Z,12.70
2018-05-29T10:38:47.447Z,13.90
2018-05-29T10:41:15.777Z,12.63
2018-05-29T10:43:44.138Z,12.47
2018-05-29T10:46:12.492Z,13.27
2018-05-29T10:48:41.173Z,13.40
2018-05-29T10:51:10.068Z,13.27
2018-05-29T10:53:38.439Z,12.43
2018-05-29T10:56:07.034Z,12.53
2018-05-29T10:58:35.396Z,9.73
2018-05-29T11:01:03.998Z,10.67
2018-05-29T11:03:32.479Z,9.57
2018-05-29T11:06:00.813Z,10.50
2018-05-29T11:08:29.447Z,10.67
2018-05-29T11:10:57.769Z,9.80
2018-05-29T11:13:26.140Z,10.63
2018-05-29T11:15:55.704Z,14.87
2018-05-29T11:18:24.083Z,11.77
2018-05-29T11:20:52.408Z,10.20
2018-05-29T11:23:20.765Z,10.77
2018-05-29T11:25:49.769Z,11.57
2018-05-29T11:28:18.115Z,12.60
2018-05-29T11:30:46.485Z,11.87
2018-05-29T11:33:14.825Z,12.43
2018-05-29T11:35:43.197Z,12.37
2018-05-29T11:38:12.158Z,10.57
2018-05-29T11:40:41.659Z,10.93
2018-05-29T11:43:10.016Z,9.87
2018-05-29T11:45:38.369Z,10.80
2018-05-29T11:48:07.084Z,11.83
2018-05-29T11:50:36.377Z,12.70
2018-05-29T11:53:04.721Z,11.50
2018-05-29T11:55:33.100Z,12.03
2018-05-29T11:58:02.362Z,11.80
2018-05-29T12:00:30.790Z,12.97
2018-05-29T12:03:00.828Z,12.80
2018-05-29T12:05:29.645Z,12.00
2018-05-29T12:07:58.024Z,12.40
2018-05-29T12:10:26.405Z,10.60
2018-05-29T12:12:54.789Z,12.17
2018-05-29T12:15:23.167Z,13.60
2018-05-29T12:17:51.531Z,13.50
2018-05-29T12:20:20.915Z,13.70
2018-05-29T12:22:49.540Z,13.00
2018-05-29T12:25:18.019Z,13.40
2018-05-29T12:27:46.366Z,12.40
2018-05-29T12:30:15.131Z,12.17
2018-05-29T12:32:43.467Z,13.47
2018-05-29T12:35:11.829Z,10.60
2018-05-29T12:37:41.009Z,12.10
2018-05-29T12:40:09.373Z,11.83
2018-05-29T12:42:38.186Z,11.07
2018-05-29T12:45:06.548Z,11.47
2018-05-29T12:47:34.897Z,12.13
2018-05-29T12:50:03.840Z,12.13
2018-05-29T12:52:32.184Z,15.20
2018-05-29T12:55:00.564Z,13.00
2018-05-29T12:57:28.926Z,13.73
2018-05-29T12:59:57.333Z,13.97
2018-05-29T13:02:25.683Z,12.30
2018-05-29T13:04:54.090Z,13.27
2018-05-29T13:07:22.420Z,13.40
2018-05-29T13:09:50.794Z,13.83
2018-05-29T13:12:19.135Z,14.10
2018-05-29T13:14:48.857Z,12.97
2018-05-29T13:17:17.345Z,14.13
2018-05-29T13:19:45.717Z,12.97
2018-05-29T13:22:14.086Z,12.33
2018-05-29T13:24:42.458Z,14.23
2018-05-29T13:27:11.000Z,12.80
2018-05-29T13:29:39.572Z,11.43
2018-05-29T13:32:07.913Z,12.17
2018-05-29T13:34:36.281Z,13.00
2018-05-29T13:37:05.062Z,12.33
2018-05-29T13:39:34.772Z,14.00
2018-05-29T13:42:03.110Z,16.67
2018-05-29T13:44:31.498Z,13.03
2018-05-29T13:46:59.827Z,12.87
2018-05-29T13:49:28.202Z,13.30
2018-05-29T13:51:56.565Z,13.43
2018-05-29T13:54:25.009Z,12.97
2018-05-29T13:56:53.354Z,17.73
2018-05-29T13:59:21.826Z,14.13
2018-05-29T14:01:50.394Z,13.00
2018-05-29T14:04:18.761Z,13.50
2018-05-29T14:06:47.114Z,14.40
2018-05-29T14:09:15.470Z,12.90
2018-05-29T14:11:43.813Z,13.37
2018-05-29T14:14:12.727Z,11.93
2018-05-29T14:16:41.820Z,12.50
2018-05-29T14:19:10.184Z,14.90
2018-05-29T14:21:38.758Z,13.07
2018-05-29T14:24:07.129Z,13.07
2018-05-29T14:26:37.025Z,12.00
2018-05-29T14:29:05.405Z,13.10
2018-05-29T14:31:33.753Z,12.37
2018-05-29T14:34:02.098Z,15.27
2018-05-29T14:36:30.473Z,12.87
2018-05-29T14:38:58.854Z,13.67
2018-05-29T14:41:27.228Z,13.20
2018-05-29T14:43:56.323Z,13.53
2018-05-29T14:46:24.637Z,12.67
2018-05-29T14:48:52.985Z,13.33
2018-05-29T14:51:21.613Z,14.37
2018-05-29T14:53:49.965Z,13.53
2018-05-29T14:56:18.704Z,13.23
2018-05-29T14:58:47.124Z,16.53
2018-05-29T15:01:15.466Z,12.70
2018-05-29T15:03:43.820Z,14.57
2018-05-29T15:06:12.193Z,16.20
2018-05-29T15:08:40.538Z,13.90
2018-05-29T15:11:08.911Z,13.83
2018-05-29T15:13:37.259Z,15.47
2018-05-29T15:16:05.634Z,14.20
2018-05-29T15:18:34.011Z,15.50
2018-05-29T15:21:03.389Z,13.30
2018-05-29T15:23:31.750Z,12.00
2018-05-29T15:26:00.913Z,12.80
2018-05-29T15:28:30.136Z,7.00
2018-05-29T15:30:58.547Z,10.07
2018-05-29T15:33:27.318Z,11.17
2018-05-29T15:35:55.680Z,8.20
2018-05-29T15:38:24.014Z,8.03
2018-05-29T15:40:53.421Z,9.93
2018-05-29T15:43:22.670Z,8.10
2018-05-29T15:45:51.062Z,8.10
2018-05-29T15:48:19.400Z,8.60
2018-05-29T15:50:48.060Z,8.37
2018-05-29T15:53:16.831Z,7.80
2018-05-29T15:55:45.424Z,9.93
2018-05-29T15:58:14.020Z,8.33
2018-05-29T16:00:42.806Z,9.67
2018-05-29T16:03:11.169Z,9.17
2018-05-29T16:05:39.857Z,10.70
2018-05-29T16:08:08.447Z,8.60
2018-05-29T16:10:37.139Z,10.70
2018-05-29T16:13:05.720Z,11.03
2018-05-29T16:15:34.077Z,9.70
2018-05-29T16:18:03.575Z,10.40
2018-05-29T16:20:32.015Z,9.63
2018-05-29T16:23:00.357Z,13.07
2018-05-29T16:25:29.048Z,12.87
2018-05-29T16:27:57.471Z,11.23
2018-05-29T16:30:25.843Z,15.40
2018-05-29T16:32:54.186Z,53.33
2018-05-29T16:35:22.558Z,47.13
2018-05-29T16:37:51.234Z,19.13
2018-05-29T16:40:20.247Z,32.50
2018-05-29T16:42:48.931Z,48.40
2018-05-29T16:45:17.303Z,26.47
2018-05-29T16:47:45.633Z,51.57
2018-05-29T16:50:14.003Z,10.73
2018-05-29T16:52:42.346Z,10.60
2018-05-29T16:55:10.712Z,10.77
2018-05-29T16:57:39.085Z,6.63
2018-05-29T17:00:07.458Z,8.03
2018-05-29T17:02:35.785Z,7.20
2018-05-29T17:05:05.274Z,5.27
2018-05-29T17:07:33.943Z,5.47
2018-05-29T17:10:02.609Z,6.63
2018-05-29T17:12:32.100Z,6.90
2018-05-29T17:15:00.673Z,5.77
2018-05-29T17:17:29.009Z,6.97
2018-05-29T17:19:57.377Z,6.20
2018-05-29T17:22:25.718Z,4.47
2018-05-29T17:24:54.337Z,8.43
2018-05-29T17:27:22.660Z,7.23
2018-05-29T17:29:51.278Z,6.13
2018-05-29T17:32:19.677Z,7.37
2018-05-29T17:34:48.057Z,8.47
2018-05-29T17:37:16.444Z,7.77
2018-05-29T17:39:44.782Z,9.87
2018-05-29T17:42:13.136Z,10.07
2018-05-29T17:44:41.467Z,9.90
2018-05-29T17:47:10.150Z,9.27
2018-05-29T17:49:39.383Z,7.67
2018-05-29T17:52:07.730Z,9.30
2018-05-29T17:54:36.294Z,9.47
2018-05-29T17:57:05.089Z,7.37
2018-05-29T17:59:33.463Z,5.73
2018-05-29T18:02:01.862Z,8.43
2018-05-29T18:04:30.243Z,8.60
2018-05-29T18:06:58.641Z,7.97
2018-05-29T18:09:27.017Z,10.13
2018-05-29T18:11:55.446Z,8.63
2018-05-29T18:14:23.854Z,9.37
2018-05-29T18:16:52.207Z,8.83
2018-05-29T18:19:20.534Z,8.60
2018-05-29T18:21:48.888Z,10.87
2018-05-29T18:24:17.256Z,7.17
2018-05-29T18:26:45.690Z,6.90
2018-05-29T18:29:14.037Z,8.87
2018-05-29T18:31:42.455Z,7.10
2018-05-29T18:34:11.241Z,10.13
2018-05-29T18:36:39.602Z,10.20
2018-05-29T18:39:09.191Z,10.60
2018-05-29T18:41:37.541Z,7.53
2018-05-29T18:44:05.882Z,7.37
2018-05-29T18:46:35.669Z,9.73
2018-05-29T18:49:04.078Z,10.23
2018-05-29T18:51:33.318Z,5.90
2018-05-29T18:54:01.681Z,6.20
2018-05-29T18:56:30.043Z,11.57
2018-05-29T18:58:58.568Z,7.47
2018-05-29T19:01:26.942Z,8.50
2018-05-29T19:03:55.272Z,7.77
2018-05-29T19:06:23.640Z,8.83
2018-05-29T19:08:51.961Z,6.60
2018-05-29T19:11:20.591Z,7.03
2018-05-29T19:13:48.930Z,9.37
2018-05-29T19:16:17.300Z,11.03
2018-05-29T19:18:45.635Z,8.07
2018-05-29T19:21:13.981Z,8.03
2018-05-29T19:23:43.978Z,6.97
2018-05-29T19:26:12.321Z,9.03
2018-05-29T19:28:40.671Z,7.67
2018-05-29T19:31:09.028Z,7.13
2018-05-29T19:33:38.093Z,9.43
2018-05-29T19:36:06.451Z,7.93
2018-05-29T19:38:34.820Z,6.37
2018-05-29T19:41:03.180Z,10.03
2018-05-29T19:43:31.525Z,7.10
2018-05-29T19:46:00.710Z,7.53
2018-05-29T19:48:29.318Z,7.40
2018-05-29T19:50:58.432Z,6.63
2018-05-29T19:53:26.765Z,8.93
2018-05-29T19:55:55.130Z,8.47
2018-05-29T19:58:23.492Z,9.33
2018-05-29T20:00:51.836Z,7.30
2018-05-29T20:03:20.177Z,8.73
2018-05-29T20:05:48.779Z,8.37
2018-05-29T20:08:17.105Z,8.97
2018-05-29T20:10:46.261Z,7.80
2018-05-29T20:13:14.631Z,11.23
2018-05-29T20:15:42.993Z,10.27
2018-05-29T20:18:11.325Z,9.33
2018-05-29T20:20:39.727Z,8.67
2018-05-29T20:23:08.077Z,10.60
2018-05-29T20:25:36.468Z,9.90
2018-05-29T20:28:05.724Z,10.97
2018-05-29T20:30:34.096Z,9.97
2018-05-29T20:33:02.680Z,9.80
2018-05-29T20:35:31.014Z,12.27
2018-05-29T20:37:59.633Z,8.00
2018-05-29T20:40:27.969Z,11.40
2018-05-29T20:42:57.146Z,10.70
2018-05-29T20:45:26.603Z,12.83
2018-05-29T20:47:55.253Z,10.53
2018-05-29T20:50:23.999Z,13.50
2018-05-29T20:52:52.413Z,10.77
2018-05-29T20:55:20.803Z,11.37
2018-05-29T20:57:49.208Z,14.17
2018-05-29T21:00:17.594Z,11.47
2018-05-29T21:02:45.954Z,13.27
2018-05-29T21:05:14.299Z,14.73
2018-05-29T21:07:42.669Z,14.03
2018-05-29T21:10:11.283Z,18.73
2018-05-29T21:12:39.691Z,15.00
2018-05-29T21:15:08.031Z,14.30
2018-05-29T21:17:36.449Z,14.07
2018-05-29T21:20:04.786Z,13.93
2018-05-29T21:22:33.212Z,13.30
2018-05-29T21:25:01.562Z,16.77
2018-05-29T21:27:29.935Z,15.03
2018-05-29T21:29:58.279Z,19.13
2018-05-29T21:32:27.594Z,14.97
2018-05-29T21:34:57.062Z,15.87
2018-05-29T21:37:25.493Z,15.53
2018-05-29T21:39:53.836Z,14.13
2018-05-29T21:42:22.949Z,17.83
2018-05-29T21:44:52.157Z,15.63
2018-05-29T21:47:21.457Z,11.17
2018-05-29T21:49:49.808Z,17.67
2018-05-29T21:52:18.179Z,13.57
2018-05-29T21:54:46.531Z,12.57
2018-05-29T21:57:18.065Z,13.27
2018-05-29T21:59:46.407Z,14.93
2018-05-29T22:02:14.757Z,12.37
2018-05-29T22:04:43.101Z,13.33
2018-05-29T22:07:11.516Z,15.47
2018-05-29T22:09:40.299Z,15.40
2018-05-29T22:12:08.677Z,13.43
2018-05-29T22:14:37.058Z,16.23
2018-05-29T22:17:05.425Z,15.77
2018-05-29T22:19:34.093Z,13.93
2018-05-29T22:22:02.482Z,13.90
2018-05-29T22:24:31.076Z,13.07
2018-05-29T22:27:00.277Z,15.93
2018-05-29T22:29:28.862Z,14.93
2018-05-29T22:31:57.276Z,13.60
2018-05-29T22:34:26.528Z,15.20
2018-05-29T22:36:54.921Z,14.40
2018-05-29T22:39:23.307Z,15.30
2018-05-29T22:41:51.676Z,15.27
2018-05-29T22:44:20.065Z,16.70
2018-05-29T22:46:48.495Z,18.97
2018-05-29T22:49:16.880Z,15.63
2018-05-29T22:51:45.525Z,16.30
2018-05-29T22:54:13.872Z,14.17
2018-05-29T22:56:43.888Z,12.93
2018-05-29T22:59:13.047Z,11.43
2018-05-29T23:01:41.413Z,12.90
2018-05-29T23:04:10.489Z,14.13
2018-05-29T23:06:38.852Z,12.30
2018-05-29T23:09:07.189Z,15.67
2018-05-29T23:11:35.579Z,15.47
2018-05-29T23:14:04.244Z,14.50
2018-05-29T23:16:33.476Z,15.50
2018-05-29T23:19:01.872Z,12.30
2018-05-29T23:21:30.303Z,17.17
2018-05-29T23:23:58.687Z,19.30
2018-05-29T23:26:28.576Z,23.53
2018-05-29T23:28:56.927Z,19.63
2018-05-29T23:31:25.295Z,16.63
2018-05-29T23:33:53.686Z,16.20
2018-05-29T23:36:22.059Z,16.03
2018-05-29T23:38:50.410Z,13.47
2018-05-29T23:41:18.752Z,12.50
2018-05-29T23:43:47.154Z,12.10
2018-05-29T23:46:15.549Z,12.90
2018-05-29T23:48:44.293Z,13.20
2018-05-29T23:51:12.625Z,12.60
2018-05-29T23:53:40.977Z,11.87
2018-05-29T23:56:09.354Z,12.63
2018-05-29T23:58:38.774Z,12.40
